createdAt,value
2022-08-29T00:01:01.580Z,71.50
2022-08-29T00:03:31.394Z,72.20
2022-08-29T00:06:01.088Z,72.66
2022-08-29T00:08:30.475Z,72.92
2022-08-29T00:10:59.547Z,73.77
2022-08-29T00:13:30.046Z,73.50
2022-08-29T00:15:59.274Z,74.22
2022-08-29T00:18:28.741Z,74.10
2022-08-29T00:20:58.140Z,75.08
2022-08-29T00:23:27.123Z,74.92
2022-08-29T00:25:56.698Z,77.22
2022-08-29T00:28:25.830Z,77.52
2022-08-29T00:30:56.610Z,77.59
2022-08-29T00:33:25.816Z,78.11
2022-08-29T00:35:54.910Z,79.57
2022-08-29T00:38:27.792Z,78.98
2022-08-29T00:40:58.755Z,78.67
2022-08-29T00:43:31.033Z,79.60
2022-08-29T00:46:12.317Z,79.22
2022-08-29T00:48:43.723Z,79.64
2022-08-29T00:51:18.863Z,80.63
2022-08-29T00:53:54.054Z,79.76
2022-08-29T00:56:23.866Z,79.50
2022-08-29T00:58:56.791Z,79.79
2022-08-29T01:01:27.921Z,79.54
2022-08-29T01:03:57.800Z,80.15
2022-08-29T01:06:29.015Z,79.40
2022-08-29T01:08:58.914Z,80.33
2022-08-29T01:11:48.996Z,79.75
2022-08-29T01:14:20.605Z,80.09
2022-08-29T01:16:53.205Z,79.04
2022-08-29T01:19:33.486Z,80.04
2022-08-29T01:22:21.625Z,79.58
2022-08-29T01:24:54.811Z,80.23
2022-08-29T01:27:27.947Z,80.67
2022-08-29T01:29:57.515Z,80.33
2022-08-29T01:32:27.649Z,81.22
2022-08-29T01:34:56.582Z,80.34
2022-08-29T01:37:30.298Z,79.36
2022-08-29T01:40:01.026Z,79.73
2022-08-29T01:42:36.541Z,79.35
2022-08-29T01:45:10.070Z,78.68
2022-08-29T01:47:40.379Z,79.58
2022-08-29T01:50:13.450Z,78.57
2022-08-29T01:52:43.573Z,79.54
2022-08-29T01:55:13.947Z,79.38
2022-08-29T01:57:43.915Z,79.09
2022-08-29T02:00:14.147Z,78.11
2022-08-29T02:02:44.679Z,79.03
2022-08-29T02:05:14.129Z,77.87
2022-08-29T02:07:43.133Z,78.09
2022-08-29T02:10:14.398Z,78.27
2022-08-29T02:12:44.595Z,78.95
2022-08-29T02:15:14.508Z,77.88
2022-08-29T02:17:43.539Z,77.40
2022-08-29T02:20:14.298Z,77.89
2022-08-29T02:22:43.897Z,78.26
2022-08-29T02:25:32.517Z,77.80
2022-08-29T02:28:01.922Z,78.10
2022-08-29T02:30:31.115Z,77.99
2022-08-29T02:33:00.199Z,78.15
2022-08-29T02:35:35.027Z,78.62
2022-08-29T02:38:05.875Z,77.56
2022-08-29T02:40:36.980Z,76.98
2022-08-29T02:43:06.676Z,76.65
2022-08-29T02:45:38.794Z,76.74
2022-08-29T02:48:09.242Z,77.03
2022-08-29T02:50:40.592Z,76.14
2022-08-29T02:53:10.379Z,76.55
2022-08-29T02:55:40.940Z,76.63
2022-08-29T02:58:10.741Z,76.40
2022-08-29T03:00:39.765Z,76.05
2022-08-29T03:03:09.257Z,75.93
2022-08-29T03:05:39.398Z,75.67
2022-08-29T03:08:10.724Z,74.47
2022-08-29T03:15:54.958Z,73.99
2022-08-29T03:18:24.713Z,74.58
2022-08-29T03:20:54.421Z,74.05
2022-08-29T03:23:23.763Z,74.16
2022-08-29T03:25:53.081Z,74.07
2022-08-29T03:28:22.064Z,74.29
2022-08-29T03:30:51.386Z,74.11
2022-08-29T03:33:22.144Z,73.76
2022-08-29T03:35:51.319Z,73.91
2022-08-29T03:38:20.316Z,73.97
2022-08-29T03:40:49.512Z,73.86
2022-08-29T03:43:21.779Z,74.45
2022-08-29T03:45:51.468Z,74.10
2022-08-29T03:48:21.904Z,74.30
2022-08-29T03:50:54.476Z,74.21
2022-08-29T03:53:25.717Z,74.00
2022-08-29T03:55:56.257Z,74.09
2022-08-29T03:58:25.576Z,74.43
2022-08-29T04:00:54.874Z,74.24
2022-08-29T04:03:30.863Z,74.89
2022-08-29T04:06:01.368Z,74.20
2022-08-29T04:08:30.683Z,74.08
2022-08-29T04:10:59.646Z,74.05
2022-08-29T04:13:28.928Z,73.50
2022-08-29T04:15:58.034Z,73.32
2022-08-29T04:18:28.399Z,73.75
2022-08-29T04:21:04.100Z,75.37
2022-08-29T04:23:33.656Z,75.19
2022-08-29T04:26:31.320Z,75.93
2022-08-29T04:28:53.105Z,74.52
2022-08-29T04:31:23.029Z,75.21
2022-08-29T04:33:53.726Z,74.81
2022-08-29T04:36:23.118Z,74.20
2022-08-29T04:38:52.460Z,75.01
2022-08-29T04:41:21.610Z,75.74
2022-08-29T04:43:50.807Z,75.96
2022-08-29T04:46:24.044Z,76.03
2022-08-29T04:48:59.446Z,75.75
2022-08-29T04:51:31.157Z,76.98
2022-08-29T04:54:00.537Z,75.93
2022-08-29T04:56:29.851Z,75.38
2022-08-29T04:58:58.962Z,75.21
2022-08-29T05:01:28.317Z,75.02
2022-08-29T05:03:59.894Z,74.02
2022-08-29T05:06:29.443Z,74.76
2022-08-29T05:08:59.766Z,74.72
2022-08-29T05:11:31.174Z,73.60
2022-08-29T05:14:01.064Z,73.40
2022-08-29T05:16:32.240Z,73.95
2022-08-29T05:19:03.223Z,73.73
2022-08-29T05:21:35.013Z,72.68
2022-08-29T05:24:07.208Z,74.01
2022-08-29T05:26:38.951Z,74.86
2022-08-29T05:29:10.500Z,74.67
2022-08-29T05:31:41.269Z,73.60
2022-08-29T05:34:31.999Z,74.31
2022-08-29T05:37:02.427Z,73.94
2022-08-29T05:39:32.181Z,73.41
2022-08-29T05:42:01.453Z,72.53
2022-08-29T05:44:35.276Z,73.64
2022-08-29T05:47:06.414Z,73.62
2022-08-29T05:49:39.818Z,73.24
2022-08-29T05:52:09.583Z,73.52
2022-08-29T05:54:40.864Z,74.81
2022-08-29T05:57:16.642Z,75.19
2022-08-29T05:59:48.800Z,74.46
2022-08-29T06:02:19.786Z,74.88
2022-08-29T06:04:51.161Z,74.79
2022-08-29T06:07:20.957Z,74.22
2022-08-29T06:09:53.008Z,74.61
2022-08-29T06:12:24.452Z,74.31
2022-08-29T06:14:54.281Z,73.79
2022-08-29T06:17:23.615Z,74.34
2022-08-29T06:19:54.513Z,73.87
2022-08-29T06:22:23.882Z,74.41
2022-08-29T06:24:57.715Z,72.47
2022-08-29T06:27:28.031Z,71.84
2022-08-29T06:30:01.241Z,71.66
2022-08-29T06:32:33.771Z,72.03
2022-08-29T06:35:06.414Z,70.36
2022-08-29T06:37:36.721Z,70.79
2022-08-29T06:40:07.607Z,70.47
2022-08-29T06:42:37.788Z,70.30
2022-08-29T06:45:10.835Z,69.18
2022-08-29T06:47:40.051Z,69.88
2022-08-29T06:50:11.363Z,70.10
2022-08-29T06:52:40.568Z,69.53
2022-08-29T06:55:13.875Z,68.65
2022-08-29T06:57:46.009Z,67.94
2022-08-29T07:00:22.439Z,68.03
2022-08-29T07:02:53.208Z,67.02
2022-08-29T07:05:25.431Z,66.88
2022-08-29T07:07:54.581Z,67.23
2022-08-29T07:10:23.818Z,67.57
2022-08-29T07:12:53.771Z,67.50
2022-08-29T07:15:25.876Z,67.33
2022-08-29T07:17:59.727Z,66.20
2022-08-29T07:20:31.035Z,65.25
2022-08-29T07:23:00.877Z,65.15
2022-08-29T07:25:29.929Z,64.71
2022-08-29T07:27:58.946Z,64.08
2022-08-29T07:30:28.536Z,63.39
2022-08-29T07:35:30.396Z,63.97
2022-08-29T07:38:02.314Z,63.21
2022-08-29T07:40:31.922Z,63.26
2022-08-29T07:43:01.202Z,62.72
2022-08-29T07:45:30.363Z,60.97
2022-08-29T07:47:59.442Z,61.32
2022-08-29T07:50:28.721Z,62.87
2022-08-29T07:52:58.271Z,61.92
2022-08-29T07:55:29.113Z,61.64
2022-08-29T07:57:58.585Z,60.56
2022-08-29T08:00:29.023Z,61.38
2022-08-29T08:02:58.617Z,59.92
2022-08-29T08:05:28.340Z,61.19
2022-08-29T08:07:59.245Z,60.89
2022-08-29T08:10:31.863Z,60.77
2022-08-29T08:13:01.385Z,60.60
2022-08-29T08:15:30.576Z,59.85
2022-08-29T08:18:00.410Z,59.56
2022-08-29T08:20:29.682Z,60.71
2022-08-29T08:22:58.678Z,59.70
2022-08-29T08:25:28.281Z,58.97
2022-08-29T08:27:59.171Z,58.06
2022-08-29T08:30:31.707Z,57.38
2022-08-29T08:33:05.322Z,55.97
2022-08-29T08:35:37.312Z,55.46
2022-08-29T08:38:08.865Z,55.83
2022-08-29T08:40:44.886Z,55.07
2022-08-29T08:43:26.782Z,53.98
2022-08-29T08:45:57.722Z,55.74
2022-08-29T08:48:34.619Z,53.61
2022-08-29T08:51:10.875Z,54.84
2022-08-29T08:53:42.873Z,54.01
2022-08-29T08:56:16.856Z,53.41
2022-08-29T08:58:53.675Z,53.04
2022-08-29T09:01:29.095Z,54.14
2022-08-29T09:04:20.708Z,53.47
2022-08-29T09:07:01.568Z,52.30
2022-08-29T09:09:45.895Z,52.10
2022-08-29T09:12:28.367Z,51.66
2022-08-29T09:15:13.846Z,53.06
2022-08-29T09:17:47.780Z,50.98
2022-08-29T09:20:22.366Z,51.04
2022-08-29T09:23:00.653Z,51.15
2022-08-29T09:25:31.123Z,49.74
2022-08-29T09:28:01.889Z,49.83
2022-08-29T09:30:34.661Z,49.86
2022-08-29T09:33:07.789Z,49.58
2022-08-29T09:35:40.951Z,49.68
2022-08-29T09:38:21.305Z,49.68
2022-08-29T09:40:58.164Z,49.13
2022-08-29T09:43:29.784Z,49.34
2022-08-29T09:46:21.051Z,49.07
2022-08-29T09:48:52.749Z,48.97
2022-08-29T09:51:29.011Z,48.42
2022-08-29T09:54:15.982Z,47.95
2022-08-29T09:56:53.456Z,47.23
2022-08-29T09:59:27.976Z,48.31
2022-08-29T10:02:19.966Z,47.58
2022-08-29T10:04:52.604Z,47.94
2022-08-29T10:07:25.175Z,45.42
2022-08-29T10:10:01.020Z,46.27
2022-08-29T10:12:39.594Z,45.34
2022-08-29T10:15:33.659Z,43.62
2022-08-29T10:18:21.654Z,42.18
2022-08-29T10:21:13.197Z,39.64
2022-08-29T10:23:53.609Z,40.27
2022-08-29T10:26:35.174Z,40.39
2022-08-29T10:29:14.737Z,38.63
2022-08-29T10:31:52.766Z,36.88
2022-08-29T10:35:00.885Z,34.65
2022-08-29T10:37:40.958Z,33.58
2022-08-29T10:40:18.234Z,32.97
2022-08-29T10:42:51.555Z,36.13
2022-08-29T10:45:30.892Z,36.31
2022-08-29T10:48:10.025Z,34.65
2022-08-29T10:50:59.735Z,33.96
2022-08-29T10:53:34.843Z,33.48
2022-08-29T10:56:11.792Z,32.66
2022-08-29T10:58:56.444Z,33.70
2022-08-29T11:01:31.619Z,28.41
2022-08-29T11:04:17.216Z,32.39
2022-08-29T11:06:54.676Z,30.38
2022-08-29T11:09:29.706Z,33.95
2022-08-29T11:12:14.489Z,33.25
2022-08-29T11:14:52.875Z,32.32
2022-08-29T11:17:27.724Z,35.44
2022-08-29T11:20:09.676Z,37.40
2022-08-29T11:22:48.518Z,38.93
2022-08-29T11:25:20.190Z,43.00
2022-08-29T11:27:58.395Z,46.68
2022-08-29T11:30:41.028Z,44.49
2022-08-29T11:33:26.069Z,43.88
2022-08-29T11:36:13.276Z,42.20
2022-08-29T11:39:05.312Z,46.70
2022-08-29T11:41:38.843Z,45.86
2022-08-29T11:44:18.283Z,45.74
2022-08-29T11:46:56.657Z,42.33
2022-08-29T11:49:42.505Z,42.50
2022-08-29T11:52:25.190Z,46.00
2022-08-29T11:55:24.221Z,42.61
2022-08-29T11:58:00.541Z,44.20
2022-08-29T12:00:48.837Z,36.70
2022-08-29T12:03:45.004Z,28.58
2022-08-29T12:06:38.991Z,30.19
2022-08-29T12:09:41.061Z,29.87
2022-08-29T12:12:41.048Z,28.43
2022-08-29T12:15:43.833Z,26.89
2022-08-29T12:18:36.630Z,27.98
2022-08-29T12:21:45.688Z,29.53
2022-08-29T12:24:37.820Z,38.53
2022-08-29T12:27:22.131Z,40.24
2022-08-29T12:29:54.684Z,43.54
2022-08-29T12:32:57.423Z,33.08
2022-08-29T12:36:09.397Z,27.51
2022-08-29T12:38:53.371Z,25.91
2022-08-29T12:41:37.267Z,22.74
2022-08-29T12:44:16.701Z,23.08
2022-08-29T12:46:51.637Z,25.13
2022-08-29T12:49:25.447Z,21.47
2022-08-29T12:51:58.005Z,22.33
2022-08-29T12:54:33.756Z,20.10
2022-08-29T12:57:04.554Z,19.91
2022-08-29T12:59:35.408Z,25.50
2022-08-29T13:02:07.243Z,31.75
2022-08-29T13:04:39.066Z,39.05
2022-08-29T13:07:16.799Z,51.60
2022-08-29T13:09:51.750Z,63.33
2022-08-29T13:12:25.673Z,70.30
2022-08-29T13:15:00.719Z,69.93
2022-08-29T13:17:34.546Z,71.12
2022-08-29T13:20:42.629Z,68.11
2022-08-29T13:23:17.794Z,67.73
2022-08-29T13:25:51.187Z,73.06
2022-08-29T13:28:28.998Z,71.70
2022-08-29T13:31:08.949Z,68.00
2022-08-29T13:33:41.567Z,68.05
2022-08-29T13:36:31.827Z,70.03
2022-08-29T13:39:28.540Z,69.46
2022-08-29T13:42:16.229Z,68.05
2022-08-29T13:45:19.023Z,65.15
2022-08-29T13:48:18.996Z,42.88
2022-08-29T13:50:49.868Z,51.86
2022-08-29T13:53:19.352Z,56.73
2022-08-29T13:55:48.383Z,58.15
2022-08-29T13:58:21.966Z,56.98
2022-08-29T14:00:51.720Z,52.29
2022-08-29T14:03:22.936Z,45.70
2022-08-29T14:05:56.608Z,42.94
2022-08-29T14:08:26.042Z,38.39
2022-08-29T14:10:55.420Z,34.74
2022-08-29T14:13:24.503Z,37.35
2022-08-29T14:15:53.672Z,35.17
2022-08-29T14:18:22.982Z,37.32
2022-08-29T14:20:53.744Z,36.51
2022-08-29T14:23:23.372Z,41.40
2022-08-29T14:25:54.366Z,38.15
2022-08-29T14:28:23.329Z,34.44
2022-08-29T14:30:52.602Z,39.98
2022-08-29T14:33:23.564Z,50.27
2022-08-29T14:35:55.050Z,52.56
2022-08-29T14:38:24.431Z,54.12
2022-08-29T14:40:53.684Z,56.08
2022-08-29T14:43:22.743Z,56.59
2022-08-29T14:45:52.362Z,59.95
2022-08-29T14:48:21.647Z,57.59
2022-08-29T14:50:53.052Z,58.16
2022-08-29T14:53:22.560Z,58.12
2022-08-29T14:55:51.715Z,61.34
2022-08-29T14:58:21.346Z,59.32
2022-08-29T15:00:51.574Z,59.41
2022-08-29T15:03:25.455Z,58.91
2022-08-29T15:05:56.581Z,58.80
2022-08-29T15:08:25.711Z,58.96
2022-08-29T15:10:54.786Z,60.19
2022-08-29T15:13:24.234Z,60.72
2022-08-29T15:15:53.467Z,62.61
2022-08-29T15:19:00.650Z,58.75
2022-08-29T15:21:13.935Z,49.83
2022-08-29T15:23:43.114Z,44.11
2022-08-29T15:26:12.322Z,38.26
2022-08-29T15:28:42.015Z,41.18
2022-08-29T15:31:11.017Z,39.80
2022-08-29T15:33:41.060Z,36.44
2022-08-29T15:36:11.362Z,39.88
2022-08-29T15:38:43.077Z,38.90
2022-08-29T15:41:12.486Z,37.73
2022-08-29T15:43:41.609Z,38.30
2022-08-29T15:46:11.234Z,38.23
2022-08-29T15:48:40.811Z,38.16
2022-08-29T15:51:09.791Z,38.79
2022-08-29T15:53:39.857Z,42.72
2022-08-29T15:56:10.892Z,45.94
2022-08-29T15:58:40.130Z,48.32
2022-08-29T16:01:09.167Z,46.37
2022-08-29T16:03:38.572Z,46.89
2022-08-29T16:06:07.978Z,50.38
2022-08-29T16:08:37.137Z,49.04
2022-08-29T16:11:07.618Z,50.40
2022-08-29T16:13:38.032Z,52.29
2022-08-29T16:16:07.977Z,53.19
2022-08-29T16:18:37.045Z,54.01
2022-08-29T16:21:06.185Z,53.40
2022-08-29T16:23:35.951Z,53.53
2022-08-29T16:26:05.104Z,54.45
2022-08-29T16:28:34.297Z,55.65
2022-08-29T16:31:06.012Z,56.57
2022-08-29T16:33:35.498Z,57.89
2022-08-29T16:36:06.913Z,58.48
2022-08-29T16:38:36.697Z,58.68
2022-08-29T16:41:08.818Z,58.68
2022-08-29T16:43:39.477Z,59.90
2022-08-29T16:46:15.157Z,60.05
2022-08-29T16:48:45.023Z,59.38
2022-08-29T16:51:14.800Z,58.24
2022-08-29T16:53:48.489Z,60.49
2022-08-29T16:56:18.966Z,60.68
2022-08-29T16:59:02.019Z,61.48
2022-08-29T17:01:36.542Z,61.77
2022-08-29T17:04:10.636Z,62.52
2022-08-29T17:06:41.552Z,62.09
2022-08-29T17:09:09.890Z,62.11
2022-08-29T17:11:38.634Z,62.41
2022-08-29T17:14:07.441Z,64.21
2022-08-29T17:16:38.896Z,63.91
2022-08-29T17:19:08.893Z,64.51
2022-08-29T17:21:38.032Z,66.48
2022-08-29T17:24:08.290Z,67.50
2022-08-29T17:26:40.844Z,68.82
2022-08-29T17:29:10.527Z,68.11
2022-08-29T17:31:41.285Z,67.98
2022-08-29T17:34:11.127Z,68.37
2022-08-29T17:36:43.812Z,67.36
2022-08-29T17:39:14.037Z,67.59
2022-08-29T17:41:44.483Z,67.90
2022-08-29T17:44:14.437Z,66.78
2022-08-29T17:46:45.279Z,67.27
2022-08-29T17:49:14.587Z,67.92
2022-08-29T17:51:43.715Z,68.39
2022-08-29T17:54:24.931Z,68.14
2022-08-29T17:56:57.673Z,66.88
2022-08-29T17:59:28.963Z,67.53
2022-08-29T18:01:59.937Z,67.68
2022-08-29T18:04:29.602Z,67.65
2022-08-29T18:06:58.969Z,68.18
2022-08-29T18:09:28.428Z,68.53
2022-08-29T18:12:00.936Z,68.18
2022-08-29T18:14:30.372Z,67.90
2022-08-29T18:17:01.127Z,68.43
2022-08-29T18:19:30.134Z,67.67
2022-08-29T18:22:02.191Z,68.63
2022-08-29T18:24:31.749Z,68.82
2022-08-29T18:27:01.606Z,69.51
2022-08-29T18:29:30.617Z,70.43
2022-08-29T18:32:01.350Z,70.37
2022-08-29T18:34:30.674Z,69.40
2022-08-29T18:36:59.745Z,69.70
2022-08-29T18:39:29.290Z,70.92
2022-08-29T18:41:59.105Z,71.23
2022-08-29T18:44:28.365Z,71.40
2022-08-29T18:46:57.322Z,71.44
2022-08-29T18:49:42.283Z,71.54
2022-08-29T18:52:12.688Z,70.63
2022-08-29T18:54:42.392Z,70.25
2022-08-29T18:57:12.030Z,70.87
2022-08-29T18:59:41.444Z,70.63
2022-08-29T19:02:13.299Z,71.60
2022-08-29T19:04:44.199Z,72.07
2022-08-29T19:07:34.014Z,72.15
2022-08-29T19:10:03.562Z,71.71
2022-08-29T19:12:36.668Z,73.25
2022-08-29T19:15:06.982Z,73.21
2022-08-29T19:17:38.511Z,73.37
2022-08-29T19:20:30.610Z,72.54
2022-08-29T19:23:00.028Z,73.74
2022-08-29T19:25:30.712Z,73.65
2022-08-29T19:28:00.173Z,73.25
2022-08-29T19:30:31.011Z,73.58
2022-08-29T19:33:00.207Z,73.79
2022-08-29T19:35:31.063Z,73.94
2022-08-29T19:38:00.705Z,73.45
2022-08-29T19:40:35.527Z,74.17
2022-08-29T19:43:13.865Z,72.95
2022-08-29T19:45:44.581Z,72.23
2022-08-29T19:48:17.339Z,72.60
2022-08-29T19:50:48.547Z,72.02
2022-08-29T19:53:26.301Z,71.99
2022-08-29T19:55:57.003Z,72.33
2022-08-29T19:58:31.116Z,72.40
2022-08-29T20:01:03.151Z,72.66
2022-08-29T20:03:37.771Z,71.99
2022-08-29T20:06:09.312Z,72.81
2022-08-29T20:08:41.321Z,72.41
2022-08-29T20:11:13.529Z,72.88
2022-08-29T20:13:47.609Z,71.44
2022-08-29T20:16:23.301Z,71.95
2022-08-29T20:18:53.502Z,72.21
2022-08-29T20:21:24.775Z,72.76
2022-08-29T20:23:57.998Z,72.47
2022-08-29T20:26:31.358Z,71.50
2022-08-29T20:29:02.388Z,71.57
2022-08-29T20:31:31.925Z,71.68
2022-08-29T20:34:01.081Z,71.54
2022-08-29T20:36:48.700Z,71.25
2022-08-29T20:39:20.743Z,70.83
2022-08-29T20:41:51.639Z,71.06
2022-08-29T20:44:21.793Z,70.59
2022-08-29T20:46:52.124Z,71.48
2022-08-29T20:49:25.109Z,70.71
2022-08-29T20:51:55.819Z,70.51
2022-08-29T20:54:26.515Z,71.80
2022-08-29T20:56:56.309Z,73.42
2022-08-29T20:59:26.968Z,74.29
2022-08-29T21:01:57.278Z,74.99
2022-08-29T21:04:44.384Z,75.00
2022-08-29T21:07:16.456Z,74.71
2022-08-29T21:09:47.310Z,75.13
2022-08-29T21:12:17.467Z,74.58
2022-08-29T21:14:46.867Z,74.70
2022-08-29T21:17:16.587Z,74.09
2022-08-29T21:19:47.004Z,74.42
2022-08-29T21:22:20.615Z,73.45
2022-08-29T21:24:52.411Z,74.38
2022-08-29T21:27:21.374Z,73.54
2022-08-29T21:29:50.453Z,73.37
2022-08-29T21:32:22.409Z,73.39
2022-08-29T21:34:51.855Z,73.71
2022-08-29T21:37:22.803Z,73.90
2022-08-29T21:39:51.940Z,73.41
2022-08-29T21:42:20.978Z,74.04
2022-08-29T21:44:50.585Z,73.12
2022-08-29T21:47:19.664Z,74.04
2022-08-29T21:49:51.831Z,74.19
2022-08-29T21:52:22.945Z,73.52
2022-08-29T21:54:54.058Z,73.48
2022-08-29T21:57:40.861Z,73.19
2022-08-29T22:00:13.443Z,73.14
2022-08-29T22:02:43.011Z,72.97
2022-08-29T22:05:12.204Z,72.03
2022-08-29T22:07:43.136Z,73.25
2022-08-29T22:10:14.179Z,73.21
2022-08-29T22:12:43.642Z,73.08
2022-08-29T22:15:30.543Z,71.79
2022-08-29T22:18:00.006Z,71.35
2022-08-29T22:20:29.445Z,71.28
2022-08-29T22:23:00.084Z,71.95
2022-08-29T22:25:29.677Z,71.07
2022-08-29T22:27:58.952Z,72.57
2022-08-29T22:30:31.847Z,72.56
2022-08-29T22:33:02.627Z,72.85
2022-08-29T22:35:32.350Z,72.61
2022-08-29T22:38:03.460Z,73.34
2022-08-29T22:40:33.175Z,74.96
2022-08-29T22:43:02.378Z,72.92
2022-08-29T22:45:31.675Z,72.93
2022-08-29T22:48:00.880Z,72.60
2022-08-29T22:50:29.870Z,72.81
2022-08-29T22:53:01.793Z,72.29
2022-08-29T22:55:33.124Z,72.79
2022-08-29T22:58:02.257Z,72.71
2022-08-29T23:00:32.711Z,73.12
2022-08-29T23:03:03.363Z,73.15
2022-08-29T23:05:32.668Z,73.96
2022-08-29T23:08:02.003Z,73.61
2022-08-29T23:10:32.694Z,74.13
2022-08-29T23:13:01.809Z,74.27
2022-08-29T23:15:31.631Z,73.98
2022-08-29T23:18:02.247Z,74.20
2022-08-29T23:20:31.349Z,74.03
2022-08-29T23:23:01.255Z,74.30
2022-08-29T23:25:32.818Z,75.10
2022-08-29T23:28:02.195Z,75.50
2022-08-29T23:30:31.650Z,76.33
2022-08-29T23:33:00.709Z,75.96
2022-08-29T23:35:29.934Z,76.49
2022-08-29T23:37:58.899Z,75.04
2022-08-29T23:40:28.484Z,75.28
2022-08-29T23:42:59.126Z,75.81
2022-08-29T23:45:29.275Z,75.26
2022-08-29T23:47:58.584Z,75.38
2022-08-29T23:50:27.657Z,74.52
2022-08-29T23:52:57.371Z,75.97
2022-08-29T23:55:26.776Z,76.10
2022-08-29T23:57:56.236Z,76.69
